Time;durP1;ratioP1;P1;durP2;ratioP2;P2;SDS_P1;SDS_P2;PMS_P1;PMS_P2;Temp;Humidity;BMP_temperature;BMP_pressure;BME280_temperature;BME280_humidity;BME280_pressure;Samples;Min_cycle;Max_cycle;Signal;HPM_P1;HPM_P2
2022/03/27 00:01:11;;;;;;;13.10;4.43;;;4.20;87.70;;;;;;5006500;28;20160;-41
2022/03/27 00:03:38;;;;;;;14.00;5.20;;;4.20;87.70;;;;;;5012286;28;20030;-42
2022/03/27 00:06:04;;;;;;;16.42;3.90;;;4.20;87.50;;;;;;5011718;28;20120;-42
2022/03/27 00:08:32;;;;;;;16.20;5.53;;;4.20;87.50;;;;;;4994874;28;20153;-42
2022/03/27 00:13:43;;;;;;;11.13;3.33;;;4.00;87.30;;;;;;5009752;28;20029;-41
2022/03/27 00:16:10;;;;;;;13.45;4.00;;;4.00;87.50;;;;;;5012514;28;20348;-43
2022/03/27 00:18:36;;;;;;;14.20;3.85;;;4.00;87.50;;;;;;5012741;28;20065;-41
2022/03/27 00:21:14;;;;;;;17.17;3.92;;;4.00;87.50;;;;;;5011975;28;20038;-43
2022/03/27 00:23:40;;;;;;;9.35;2.65;;;3.90;87.50;;;;;;4995824;28;20033;-42
2022/03/27 00:26:06;;;;;;;20.63;3.63;;;3.90;87.70;;;;;;5011614;28;20367;-44
2022/03/27 00:28:33;;;;;;;7.68;2.10;;;3.90;87.50;;;;;;5011705;28;20033;-43
2022/03/27 00:31:14;;;;;;;8.10;2.88;;;3.80;87.30;;;;;;5011638;28;20054;-41
2022/03/27 00:33:42;;;;;;;8.95;1.85;;;3.80;87.50;;;;;;5011683;28;20029;-41
2022/03/27 00:36:13;;;;;;;4.65;2.25;;;3.80;87.60;;;;;;4995578;28;20502;-42
2022/03/27 00:38:46;;;;;;;6.22;2.10;;;3.70;87.40;;;;;;5012529;28;20038;-42
2022/03/27 00:41:14;;;;;;;4.63;1.85;;;3.70;87.50;;;;;;5012327;28;20044;-41
2022/03/27 00:43:41;;;;;;;5.93;2.00;;;3.70;87.40;;;;;;5012608;28;20029;-45
2022/03/27 00:46:10;;;;;;;11.45;2.58;;;3.60;87.30;;;;;;5010663;28;20030;-42
2022/03/27 00:48:37;;;;;;;11.32;2.65;;;3.60;87.40;;;;;;5010950;28;20100;-41
2022/03/27 00:51:04;;;;;;;11.40;3.08;;;3.70;87.50;;;;;;5011126;28;20113;-41
2022/03/27 00:53:34;;;;;;;8.85;2.83;;;3.70;87.50;;;;;;5011254;28;20351;-41
2022/03/27 00:56:01;;;;;;;10.07;2.17;;;3.60;87.20;;;;;;5011280;28;20036;-41
2022/03/27 00:58:38;;;;;;;12.10;2.90;;;3.60;87.40;;;;;;5011981;28;20033;-43
2022/03/27 01:01:35;;;;;;;10.52;2.50;;;3.60;87.60;;;;;;5011546;28;20054;-42
2022/03/27 01:04:02;;;;;;;9.77;2.45;;;3.60;87.30;;;;;;5011862;28;20034;-42
2022/03/27 01:06:34;;;;;;;10.18;2.85;;;3.60;87.40;;;;;;4994291;28;20034;-42
2022/03/27 01:11:46;;;;;;;13.02;3.28;;;3.50;87.40;;;;;;5010405;28;20033;-41
2022/03/27 01:14:18;;;;;;;7.25;2.80;;;3.50;87.40;;;;;;5010512;28;20042;-42
2022/03/27 01:16:48;;;;;;;7.85;3.08;;;3.50;87.30;;;;;;5007251;28;20038;-41
2022/03/27 01:19:18;;;;;;;13.70;2.55;;;3.50;87.20;;;;;;5009389;28;20046;-41
2022/03/27 01:21:46;;;;;;;;;;;3.50;87.50;;;;;;5011205;28;20112;-41
2022/03/27 01:24:14;;;;;;;8.35;2.60;;;3.50;87.40;;;;;;5010730;28;19914;-41
2022/03/27 01:26:42;;;;;;;9.40;2.17;;;3.40;87.40;;;;;;5011917;28;20041;-40
2022/03/27 01:29:08;;;;;;;9.07;3.05;;;3.50;87.50;;;;;;5011620;28;20116;-41
2022/03/27 01:31:37;;;;;;;7.22;2.25;;;3.50;87.60;;;;;;5011289;28;20085;-41
2022/03/27 01:34:07;;;;;;;8.27;2.15;;;3.50;87.50;;;;;;5010580;28;20092;-41
2022/03/27 01:36:35;;;;;;;10.38;2.75;;;3.50;87.70;;;;;;5011562;28;20195;-41
2022/03/27 01:39:11;;;;;;;9.55;2.80;;;3.50;87.60;;;;;;5010692;28;20034;-42
2022/03/27 01:41:40;;;;;;;15.00;2.83;;;3.50;87.60;;;;;;5010508;28;20030;-41
2022/03/27 01:44:10;;;;;;;6.72;2.78;;;3.50;87.60;;;;;;4994045;28;20036;-43
2022/03/27 01:46:39;;;;;;;10.48;2.70;;;3.40;87.80;;;;;;5001467;28;20368;-41
2022/03/27 01:49:08;;;;;;;7.75;2.90;;;3.40;87.70;;;;;;5011329;28;20022;-41
2022/03/27 01:51:36;;;;;;;11.43;3.00;;;3.40;87.90;;;;;;5010620;28;20391;-41
2022/03/27 01:54:08;;;;;;;15.43;4.50;;;3.40;88.00;;;;;;4992863;28;20268;-41
2022/03/27 01:56:37;;;;;;;9.70;3.47;;;3.50;88.00;;;;;;5009662;28;20470;-41
2022/03/27 01:59:05;;;;;;;11.20;3.05;;;3.50;88.00;;;;;;5010036;28;20038;-41
2022/03/27 02:01:34;;;;;;;8.55;2.90;;;3.50;88.10;;;;;;5009906;28;20056;-42
2022/03/27 02:04:04;;;;;;;9.80;3.05;;;3.50;88.00;;;;;;5010011;28;20042;-41
2022/03/27 02:06:39;;;;;;;9.50;2.95;;;3.50;88.20;;;;;;5011082;28;20463;-40
2022/03/27 02:09:12;;;;;;;11.77;2.83;;;3.50;88.10;;;;;;5008958;28;20061;-42
2022/03/27 02:11:40;;;;;;;14.73;3.15;;;3.50;88.10;;;;;;5010454;28;20344;-41
2022/03/27 02:14:08;;;;;;;9.95;2.90;;;3.50;88.10;;;;;;5010903;28;20042;-44
2022/03/27 02:16:36;;;;;;;10.98;2.80;;;3.50;88.10;;;;;;5010461;28;20737;-40
2022/03/27 02:19:08;;;;;;;8.65;2.70;;;3.50;88.10;;;;;;5008946;28;20135;-42
2022/03/27 02:21:39;;;;;;;8.43;2.65;;;3.40;87.80;;;;;;5009388;28;20113;-40
2022/03/27 02:24:08;;;;;;;8.35;2.38;;;3.40;87.90;;;;;;4992879;28;20156;-42
2022/03/27 02:26:37;;;;;;;7.87;3.03;;;3.40;87.80;;;;;;5009218;28;20137;-41
2022/03/27 02:29:06;;;;;;;13.45;2.45;;;3.40;87.80;;;;;;5009551;28;20056;-40
2022/03/27 02:31:32;;;;;;;15.93;3.38;;;3.30;87.80;;;;;;5009056;28;20064;-41
2022/03/27 02:33:58;;;;;;;11.35;3.45;;;3.30;87.70;;;;;;5009191;28;20038;-43
2022/03/27 02:36:24;;;;;;;16.52;4.57;;;3.30;87.80;;;;;;5010523;28;20026;-41
2022/03/27 02:38:50;;;;;;;7.18;3.03;;;3.30;87.80;;;;;;5009342;28;20029;-40
2022/03/27 02:41:19;;;;;;;12.40;3.22;;;3.30;88.10;;;;;;5010421;28;20044;-40
2022/03/27 02:43:46;;;;;;;14.05;4.35;;;3.40;88.10;;;;;;5010428;28;20110;-40
2022/03/27 02:46:13;;;;;;;16.02;3.67;;;3.40;88.10;;;;;;5010206;28;20091;-41
2022/03/27 02:48:39;;;;;;;12.52;4.28;;;3.40;88.00;;;;;;5010140;28;20026;-40
2022/03/27 02:51:06;;;;;;;16.35;4.30;;;3.50;88.10;;;;;;5009931;28;20529;-40
2022/03/27 02:53:33;;;;;;;20.13;4.93;;;3.50;88.20;;;;;;5009439;28;20042;-41
2022/03/27 02:56:10;;;;;;;15.75;4.28;;;3.50;88.00;;;;;;5010401;28;20022;-41
2022/03/27 02:58:36;;;;;;;17.90;4.05;;;3.50;88.00;;;;;;4990865;28;20350;-40
2022/03/27 03:01:03;;;;;;;18.17;4.22;;;3.50;88.00;;;;;;5005148;28;20041;-42
2022/03/27 03:03:36;;;;;;;18.30;5.38;;;3.50;87.90;;;;;;5010288;28;20026;-40
2022/03/27 03:06:05;;;;;;;22.02;4.60;;;3.50;88.00;;;;;;5010028;28;20037;-42
2022/03/27 03:08:35;;;;;;;19.07;5.43;;;3.50;88.00;;;;;;5002756;28;20133;-40
2022/03/27 03:11:02;;;;;;;16.80;4.53;;;3.50;88.10;;;;;;5009051;28;20034;-40
2022/03/27 03:13:28;;;;;;;19.25;6.28;;;3.50;88.30;;;;;;4989608;28;20108;-41
2022/03/27 03:15:57;;;;;;;14.45;4.70;;;3.50;88.10;;;;;;4995557;28;20029;-41
2022/03/27 03:18:25;;;;;;;23.80;4.43;;;3.50;88.20;;;;;;5008760;28;20055;-40
2022/03/27 03:20:53;;;;;;;15.05;5.93;;;3.50;88.20;;;;;;5008619;28;20034;-41
2022/03/27 03:23:19;;;;;;;13.05;4.22;;;3.60;88.40;;;;;;5009585;28;20044;-41
2022/03/27 03:25:47;;;;;;;18.70;4.53;;;3.60;88.30;;;;;;5010047;28;20116;-43
2022/03/27 03:28:14;;;;;;;14.93;4.43;;;3.60;88.40;;;;;;5009546;28;20099;-42
2022/03/27 03:30:41;;;;;;;19.77;4.22;;;3.60;88.30;;;;;;5008794;28;20042;-41
2022/03/27 03:33:09;;;;;;;17.85;4.55;;;3.60;88.30;;;;;;5009322;28;20434;-42
2022/03/27 03:35:37;;;;;;;13.13;4.35;;;3.60;88.40;;;;;;5009457;28;20113;-42
2022/03/27 03:38:07;;;;;;;11.32;3.78;;;3.60;88.20;;;;;;5011583;28;20057;-40
2022/03/27 03:40:35;;;;;;;23.00;5.85;;;3.60;88.30;;;;;;5014107;28;20029;-40
2022/03/27 03:43:03;;;;;;;16.35;5.32;;;3.60;88.30;;;;;;5013674;28;20328;-40
2022/03/27 03:45:30;;;;;;;16.80;5.20;;;3.60;88.30;;;;;;5013106;28;20033;-40
2022/03/27 03:47:58;;;;;;;13.80;5.00;;;3.60;88.30;;;;;;5012489;28;20431;-42
2022/03/27 03:50:26;;;;;;;12.25;5.40;;;3.60;88.40;;;;;;5013504;28;20111;-40
2022/03/27 03:52:52;;;;;;;15.48;5.82;;;3.60;88.40;;;;;;5012586;28;20037;-40
2022/03/27 03:55:21;;;;;;;12.90;5.43;;;3.60;88.40;;;;;;5014235;28;20057;-40
2022/03/27 03:57:48;;;;;;;11.20;4.15;;;3.60;88.40;;;;;;5013028;28;20064;-40
2022/03/27 04:00:14;;;;;;;20.80;5.95;;;3.60;88.50;;;;;;5012468;28;20065;-40
2022/03/27 04:02:41;;;;;;;15.63;4.68;;;3.60;88.50;;;;;;5012323;28;20080;-40
2022/03/27 04:05:16;;;;;;;11.55;4.55;;;3.50;88.50;;;;;;5013497;28;20018;-42
2022/03/27 04:07:44;;;;;;;9.93;4.47;;;3.60;88.90;;;;;;5011639;28;20030;-40
2022/03/27 04:10:15;;;;;;;13.70;4.20;;;3.60;88.90;;;;;;5013117;28;20144;-40
2022/03/27 04:12:42;;;;;;;11.68;4.20;;;3.70;88.80;;;;;;5012599;28;20034;-41
2022/03/27 04:15:09;;;;;;;9.90;4.43;;;3.70;88.80;;;;;;5013036;28;20062;-40
2022/03/27 04:17:42;;;;;;;14.80;4.07;;;3.70;88.80;;;;;;5011523;28;20048;-42
2022/03/27 04:20:12;;;;;;;11.63;3.83;;;3.70;88.80;;;;;;5011531;28;20072;-42
2022/03/27 04:22:42;;;;;;;8.90;4.03;;;3.70;88.90;;;;;;5012208;28;20034;-40
2022/03/27 04:25:15;;;;;;;7.57;2.75;;;3.70;88.90;;;;;;4992482;28;20041;-40
2022/03/27 04:27:45;;;;;;;13.73;4.55;;;3.80;88.90;;;;;;5006132;28;20044;-40
2022/03/27 04:30:13;;;;;;;9.02;3.80;;;3.80;88.90;;;;;;5013298;28;20049;-41
2022/03/27 04:32:40;;;;;;;10.27;6.13;;;3.80;88.80;;;;;;5011500;28;20042;-41
2022/03/27 04:35:12;;;;;;;9.88;3.65;;;3.90;88.80;;;;;;5012561;28;20033;-42
2022/03/27 04:37:42;;;;;;;6.15;3.17;;;3.90;88.90;;;;;;5012177;28;20034;-42
2022/03/27 04:40:09;;;;;;;9.63;3.60;;;3.90;88.90;;;;;;5012687;28;20045;-41
2022/03/27 04:42:36;;;;;;;8.32;3.92;;;3.90;88.90;;;;;;5011478;28;20030;-42
2022/03/27 04:45:03;;;;;;;10.00;4.47;;;3.90;89.10;;;;;;5011068;28;20481;-41
2022/03/27 04:47:31;;;;;;;12.25;4.68;;;4.00;89.10;;;;;;5010893;28;20125;-40
2022/03/27 04:49:56;;;;;;;8.05;3.53;;;4.00;89.20;;;;;;4991639;28;20475;-43
2022/03/27 04:52:24;;;;;;;12.38;3.83;;;4.20;89.40;;;;;;5003337;28;20034;-43
2022/03/27 04:54:50;;;;;;;10.90;4.50;;;4.20;89.40;;;;;;5011696;28;20037;-42
2022/03/27 04:57:21;;;;;;;25.45;9.13;;;4.30;89.20;;;;;;5011968;28;20475;-42
2022/03/27 04:59:47;;;;;;;35.95;20.80;;;4.30;89.20;;;;;;4991830;28;20367;-43
2022/03/27 05:02:15;;;;;;;33.13;17.60;;;4.30;89.10;;;;;;5009939;28;20039;-42
2022/03/27 05:04:47;;;;;;;16.67;8.02;;;4.30;89.30;;;;;;5012094;28;20369;-41
2022/03/27 05:07:14;;;;;;;19.23;4.82;;;4.30;89.10;;;;;;5011515;28;20369;-40
2022/03/27 05:09:41;;;;;;;9.02;3.83;;;4.30;89.00;;;;;;5011643;28;20491;-41
2022/03/27 05:12:09;;;;;;;8.57;4.40;;;4.40;89.10;;;;;;5011281;28;20049;-41
2022/03/27 05:14:35;;;;;;;14.32;5.20;;;4.30;89.00;;;;;;5011140;28;20038;-41
2022/03/27 05:17:07;;;;;;;20.10;4.28;;;4.30;88.90;;;;;;5011626;28;20069;-42
2022/03/27 05:19:35;;;;;;;12.88;4.43;;;4.30;88.90;;;;;;4992212;28;20065;-43
2022/03/27 05:22:02;;;;;;;10.45;4.15;;;4.30;88.90;;;;;;5000230;28;20072;-42
2022/03/27 05:24:33;;;;;;;13.07;4.25;;;4.30;88.90;;;;;;5011800;28;20041;-40
2022/03/27 05:27:00;;;;;;;12.20;3.90;;;4.20;88.80;;;;;;5011234;28;20091;-42
2022/03/27 05:29:28;;;;;;;13.38;3.97;;;4.20;88.70;;;;;;5011664;28;20508;-40
2022/03/27 05:31:55;;;;;;;14.70;4.90;;;4.20;88.70;;;;;;5010237;28;20045;-41
2022/03/27 05:34:21;;;;;;;11.75;6.40;;;4.20;88.70;;;;;;5011361;28;20148;-43
2022/03/27 05:36:48;;;;;;;13.00;5.70;;;4.20;88.80;;;;;;5010242;28;20113;-41
2022/03/27 05:39:15;;;;;;;9.02;3.53;;;4.20;88.80;;;;;;5011452;28;20026;-43
2022/03/27 05:41:40;;;;;;;13.40;4.75;;;4.20;88.70;;;;;;5011437;28;20038;-41
2022/03/27 05:44:07;;;;;;;12.55;4.82;;;4.20;88.80;;;;;;5011367;28;20076;-42
2022/03/27 05:46:34;;;;;;;12.07;5.28;;;4.30;88.90;;;;;;5010770;28;20034;-44
2022/03/27 05:49:01;;;;;;;8.43;4.03;;;4.30;89.00;;;;;;5011225;28;20022;-43
2022/03/27 05:51:37;;;;;;;15.70;5.25;;;4.40;89.20;;;;;;5010890;28;20051;-42
2022/03/27 05:54:05;;;;;;;10.88;4.07;;;4.40;89.20;;;;;;5009329;28;20092;-41
2022/03/27 05:56:32;;;;;;;14.30;4.57;;;4.50;89.30;;;;;;5010822;28;20015;-40
2022/03/27 05:58:58;;;;;;;15.25;3.55;;;4.60;89.50;;;;;;5011175;28;20022;-41
2022/03/27 06:01:28;;;;;;;16.45;5.53;;;4.70;89.50;;;;;;5010215;28;20141;-40
2022/03/27 06:03:55;;;;;;;14.93;4.95;;;4.70;89.50;;;;;;5008371;28;20037;-41
2022/03/27 06:06:22;;;;;;;12.60;5.22;;;4.90;89.60;;;;;;5009063;28;20073;-41
2022/03/27 06:08:50;;;;;;;18.73;5.60;;;4.90;89.50;;;;;;5010402;28;20037;-41
2022/03/27 06:11:16;;;;;;;10.80;4.15;;;5.00;89.40;;;;;;5010383;28;20014;-40
2022/03/27 06:13:43;;;;;;;10.15;4.05;;;5.10;89.40;;;;;;5010282;28;20155;-40
2022/03/27 06:16:11;;;;;;;10.60;4.07;;;5.20;89.40;;;;;;5008796;28;20022;-40
2022/03/27 06:18:39;;;;;;;7.45;3.08;;;5.30;89.30;;;;;;5009140;28;20430;-40
2022/03/27 06:21:08;;;;;;;7.32;3.47;;;5.40;88.90;;;;;;5010531;28;20088;-40
2022/03/27 06:23:37;;;;;;;9.77;4.22;;;5.40;88.70;;;;;;5007420;28;20443;-40
2022/03/27 06:26:06;;;;;;;7.60;3.13;;;5.30;88.30;;;;;;5009236;28;20037;-41
2022/03/27 06:28:32;;;;;;;8.32;3.42;;;5.30;88.20;;;;;;5006499;28;20058;-41
2022/03/27 06:30:59;;;;;;;8.57;3.58;;;5.30;87.90;;;;;;5010643;28;20065;-41
2022/03/27 06:33:27;;;;;;;6.88;3.42;;;5.20;87.80;;;;;;5010535;28;20321;-40
2022/03/27 06:35:54;;;;;;;43.85;23.02;;;5.20;87.80;;;;;;5010430;28;20103;-41
2022/03/27 06:38:25;;;;;;;49.55;23.30;;;5.20;87.80;;;;;;5009445;28;20052;-41
2022/03/27 06:40:52;;;;;;;27.35;11.25;;;5.20;87.80;;;;;;5010016;28;20030;-40
2022/03/27 06:43:19;;;;;;;12.43;6.30;;;5.20;87.60;;;;;;5010230;28;20030;-40
2022/03/27 06:45:46;;;;;;;11.05;3.95;;;5.20;87.60;;;;;;5010433;28;20105;-41
2022/03/27 06:48:11;;;;;;;8.60;3.65;;;5.20;87.40;;;;;;5009239;28;20025;-40
2022/03/27 06:50:38;;;;;;;8.88;3.20;;;5.20;87.50;;;;;;5009049;28;20337;-43
2022/03/27 06:53:05;;;;;;;10.50;3.35;;;5.30;87.80;;;;;;5008143;28;20042;-42
2022/03/27 06:55:33;;;;;;;13.07;3.92;;;5.50;87.70;;;;;;5009055;28;20092;-43
2022/03/27 06:58:01;;;;;;;7.22;2.88;;;5.60;87.70;;;;;;5010053;28;20375;-43
2022/03/27 07:03:12;;;;;;;8.10;3.33;;;5.90;87.70;;;;;;5009007;28;20033;-42
2022/03/27 07:05:45;;;;;;;7.38;3.20;;;6.10;87.90;;;;;;5009666;28;20041;-42
2022/03/27 07:08:17;;;;;;;11.45;4.25;;;6.30;87.80;;;;;;5009541;28;20038;-43
2022/03/27 07:10:49;;;;;;;18.40;5.20;;;6.50;87.50;;;;;;4991979;28;20046;-44
2022/03/27 07:13:16;;;;;;;12.90;4.65;;;6.70;87.70;;;;;;4992233;28;20121;-41
2022/03/27 07:15:45;;;;;;;18.75;6.13;;;6.80;87.20;;;;;;5010016;28;20032;-42
2022/03/27 07:18:12;;;;;;;17.13;8.80;;;6.90;87.20;;;;;;5007740;28;20494;-42
2022/03/27 07:20:41;;;;;;;15.60;6.90;;;7.00;86.70;;;;;;5009423;28;20117;-46
2022/03/27 07:23:09;;;;;;;14.00;4.57;;;7.20;87.10;;;;;;5007161;28;20026;-43
2022/03/27 07:25:39;;;;;;;16.50;5.10;;;7.20;86.70;;;;;;5007973;28;20033;-41
2022/03/27 07:28:08;;;;;;;14.40;4.85;;;7.30;86.70;;;;;;5008679;28;20057;-41
2022/03/27 07:30:37;;;;;;;23.20;6.40;;;7.40;86.70;;;;;;5008706;28;20033;-42
2022/03/27 07:33:04;;;;;;;12.23;4.30;;;7.40;86.50;;;;;;5009108;28;20336;-42
2022/03/27 07:35:31;;;;;;;16.25;4.88;;;7.60;86.40;;;;;;5008070;28;20045;-43
2022/03/27 07:38:00;;;;;;;18.98;4.97;;;7.70;86.20;;;;;;5008209;28;20041;-42
2022/03/27 07:40:28;;;;;;;11.70;5.15;;;7.90;86.10;;;;;;5008608;28;20164;-43
2022/03/27 07:42:56;;;;;;;11.52;4.63;;;8.00;86.10;;;;;;5009493;28;20044;-42
2022/03/27 07:45:26;;;;;;;13.98;4.68;;;8.20;85.80;;;;;;5008658;28;20038;-42
2022/03/27 07:47:54;;;;;;;26.08;6.35;;;8.40;86.20;;;;;;5009009;28;20669;-42
2022/03/27 07:50:23;;;;;;;27.40;6.95;;;8.50;85.20;;;;;;5009174;28;20451;-42
2022/03/27 07:52:50;;;;;;;31.60;7.40;;;8.70;85.50;;;;;;5007678;28;20144;-43
2022/03/27 07:55:20;;;;;;;24.30;6.65;;;8.70;84.90;;;;;;5009340;28;20030;-42
2022/03/27 07:57:49;;;;;;;30.42;6.30;;;8.80;84.80;;;;;;5009510;28;20030;-43
2022/03/27 08:00:17;;;;;;;25.67;7.57;;;8.90;84.70;;;;;;5009554;28;20081;-42
2022/03/27 08:02:45;;;;;;;28.58;7.35;;;9.00;84.50;;;;;;5009095;28;20105;-43
2022/03/27 08:05:13;;;;;;;21.38;7.75;;;9.30;84.40;;;;;;5008528;28;20087;-43
2022/03/27 08:07:39;;;;;;;24.95;7.65;;;9.50;83.90;;;;;;5009444;28;20040;-43
2022/03/27 08:10:07;;;;;;;28.95;6.60;;;9.70;83.10;;;;;;4991961;28;20340;-43
2022/03/27 08:12:35;;;;;;;21.27;6.32;;;9.80;82.50;;;;;;5008714;28;20033;-44
2022/03/27 08:15:05;;;;;;;19.85;6.80;;;9.90;82.60;;;;;;5008697;28;20073;-43
2022/03/27 08:17:34;;;;;;;27.00;7.72;;;10.00;82.10;;;;;;5008347;28;20412;-44
2022/03/27 08:20:02;;;;;;;37.83;11.05;;;10.10;81.40;;;;;;5007443;28;20133;-45
2022/03/27 08:22:28;;;;;;;93.38;49.40;;;10.10;81.20;;;;;;5007287;28;20034;-45
2022/03/27 08:24:55;;;;;;;65.63;36.08;;;9.90;80.50;;;;;;5009961;28;20443;-44
2022/03/27 08:27:23;;;;;;;58.70;30.40;;;9.90;80.90;;;;;;5012347;28;20458;-44
2022/03/27 08:29:49;;;;;;;41.05;19.10;;;10.10;81.70;;;;;;5011917;28;20030;-44
2022/03/27 08:32:17;;;;;;;86.63;64.78;;;10.50;81.00;;;;;;5012660;28;20029;-44
2022/03/27 08:34:49;;;;;;;44.22;26.83;;;10.80;79.70;;;;;;5011508;28;20037;-44
2022/03/27 08:37:17;;;;;;;37.35;9.68;;;10.90;78.20;;;;;;5011738;28;20061;-45
2022/03/27 08:39:47;;;;;;;37.67;10.15;;;11.10;77.20;;;;;;5012293;28;20033;-44
2022/03/27 08:42:20;;;;;;;42.83;9.77;;;11.00;77.10;;;;;;5008974;28;20475;-46
2022/03/27 08:44:46;;;;;;;33.47;8.98;;;10.80;77.70;;;;;;5011879;28;20046;-44
2022/03/27 08:47:26;;;;;;;33.58;9.43;;;10.40;78.20;;;;;;5011006;28;20037;-48
2022/03/27 08:50:09;;;;;;;32.05;10.07;;;10.70;78.70;;;;;;5009812;28;20041;-45
2022/03/27 08:53:12;;;;;;;28.65;8.18;;;11.40;77.00;;;;;;5008349;28;20069;-46
2022/03/27 08:55:55;;;;;;;24.17;6.38;;;11.60;76.30;;;;;;5012019;28;20053;-45
2022/03/27 08:58:25;;;;;;;30.73;7.63;;;12.00;74.50;;;;;;5003824;28;20030;-44
2022/03/27 09:00:53;;;;;;;22.73;7.60;;;12.50;74.00;;;;;;5011352;28;20464;-46
2022/03/27 09:03:20;;;;;;;26.67;7.13;;;12.50;70.20;;;;;;5011217;28;20050;-44
2022/03/27 09:05:48;;;;;;;33.60;8.63;;;12.90;70.10;;;;;;5012202;28;20026;-46
2022/03/27 09:08:16;;;;;;;28.73;8.18;;;13.00;70.10;;;;;;5011553;28;20088;-46
2022/03/27 09:10:44;;;;;;;25.85;8.60;;;13.30;70.50;;;;;;5012086;28;20061;-44
2022/03/27 09:13:15;;;;;;;40.25;10.60;;;13.50;67.70;;;;;;5011465;28;20042;-45
2022/03/27 09:15:49;;;;;;;29.10;9.85;;;13.70;66.00;;;;;;4991067;28;20027;-44
2022/03/27 09:18:17;;;;;;;21.15;7.25;;;13.90;65.10;;;;;;4995783;28;20034;-44
2022/03/27 09:20:53;;;;;;;23.42;6.78;;;13.90;64.30;;;;;;5012116;28;20033;-43
2022/03/27 09:23:30;;;;;;;24.50;7.22;;;14.00;66.40;;;;;;5010707;28;20089;-44
2022/03/27 09:26:09;;;;;;;23.98;7.55;;;14.40;64.70;;;;;;5011786;28;20018;-45
2022/03/27 09:28:40;;;;;;;33.85;8.98;;;14.10;63.50;;;;;;5007854;28;20039;-45
2022/03/27 09:31:18;;;;;;;27.20;8.13;;;14.10;63.20;;;;;;5009961;28;20679;-49
2022/03/27 09:33:50;;;;;;;34.03;9.35;;;14.10;64.30;;;;;;5011242;28;20034;-44
2022/03/27 09:36:42;;;;;;;30.02;9.38;;;14.00;65.20;;;;;;5009252;28;20091;-45
2022/03/27 09:39:32;;;;;;;23.48;8.32;;;14.00;65.90;;;;;;5010558;28;20071;-47
2022/03/27 09:42:01;;;;;;;33.85;12.57;;;14.40;65.00;;;;;;4991829;28;20026;-45
2022/03/27 09:44:46;;;;;;;54.67;31.33;;;14.20;65.40;;;;;;5001172;28;20340;-44
2022/03/27 09:47:14;;;;;;;29.65;10.82;;;13.80;64.50;;;;;;5010920;28;20308;-43
2022/03/27 09:49:43;;;;;;;25.02;8.73;;;13.60;67.70;;;;;;5010874;28;20058;-44
2022/03/27 09:52:24;;;;;;;25.80;8.63;;;14.00;66.00;;;;;;5009636;28;20034;-44
2022/03/27 09:55:11;;;;;;;32.90;11.07;;;14.00;65.40;;;;;;5010234;28;20034;-44
2022/03/27 09:57:40;;;;;;;28.83;8.48;;;14.10;64.90;;;;;;5009584;28;20485;-44
2022/03/27 10:00:14;;;;;;;27.52;8.43;;;13.90;66.40;;;;;;4993729;28;20072;-44
2022/03/27 10:02:45;;;;;;;30.25;9.60;;;14.00;65.00;;;;;;5010299;28;20026;-45
2022/03/27 10:05:17;;;;;;;29.60;8.65;;;14.20;65.10;;;;;;4994179;28;20041;-44
2022/03/27 10:07:48;;;;;;;44.00;18.17;;;14.30;64.80;;;;;;4993788;28;20420;-44
2022/03/27 10:10:23;;;;;;;27.38;8.75;;;14.30;63.40;;;;;;5010898;28;20063;-44
2022/03/27 10:12:58;;;;;;;34.85;10.23;;;14.40;65.90;;;;;;5009162;28;20045;-45
2022/03/27 10:15:31;;;;;;;27.92;9.43;;;14.70;62.70;;;;;;5007866;28;20104;-47
2022/03/27 10:18:21;;;;;;;30.08;9.18;;;14.50;63.90;;;;;;5025101;28;20034;-45
2022/03/27 10:20:56;;;;;;;30.95;7.57;;;14.70;64.30;;;;;;5010131;28;20113;-45
2022/03/27 10:23:24;;;;;;;34.08;8.30;;;14.50;63.30;;;;;;4993165;28;20030;-45
2022/03/27 10:26:01;;;;;;;37.15;12.82;;;14.50;64.10;;;;;;5010871;28;20343;-45
2022/03/27 10:28:30;;;;;;;18.30;6.07;;;14.40;64.10;;;;;;5009633;28;20048;-45
2022/03/27 10:30:57;;;;;;;31.80;8.57;;;14.40;60.40;;;;;;5009685;28;20112;-49
2022/03/27 10:33:26;;;;;;;22.08;7.97;;;14.60;62.20;;;;;;5009236;28;20368;-46
2022/03/27 10:36:17;;;;;;;33.30;9.55;;;14.70;60.90;;;;;;4993692;28;20054;-47
2022/03/27 10:39:21;;;;;;;23.45;7.88;;;14.40;63.40;;;;;;5007296;28;20037;-45
2022/03/27 10:42:19;;;;;;;32.05;8.98;;;14.40;64.00;;;;;;5010179;28;20025;-45
2022/03/27 10:45:09;;;;;;;23.02;6.32;;;14.50;65.20;;;;;;5008422;28;20034;-45
2022/03/27 10:47:37;;;;;;;28.42;9.20;;;14.40;59.70;;;;;;5008453;28;20072;-45
2022/03/27 10:50:08;;;;;;;22.10;7.97;;;14.40;64.20;;;;;;5008619;28;20053;-44
2022/03/27 10:52:54;;;;;;;25.67;7.55;;;14.40;64.70;;;;;;5008728;28;20076;-45
2022/03/27 10:55:22;;;;;;;26.85;7.25;;;14.40;65.10;;;;;;5004101;28;20117;-45
2022/03/27 10:57:52;;;;;;;25.60;7.57;;;14.20;64.80;;;;;;5009791;28;20430;-44
2022/03/27 11:00:38;;;;;;;31.63;7.60;;;14.10;64.70;;;;;;5009092;28;20049;-45
2022/03/27 11:03:06;;;;;;;27.83;7.28;;;14.10;66.80;;;;;;5009155;28;20022;-47
2022/03/27 11:05:40;;;;;;;36.58;9.10;;;14.00;66.70;;;;;;5009645;28;20041;-47
2022/03/27 11:08:29;;;;;;;23.80;7.07;;;13.90;66.30;;;;;;5009893;28;20046;-44
2022/03/27 11:11:01;;;;;;;28.30;10.10;;;13.90;66.10;;;;;;5006544;28;20049;-48
2022/03/27 11:13:32;;;;;;;31.35;8.48;;;13.60;65.90;;;;;;5008519;28;20048;-45
2022/03/27 11:16:27;;;;;;;28.20;7.78;;;13.50;69.30;;;;;;5008678;28;20038;-45
2022/03/27 11:18:59;;;;;;;31.58;7.93;;;13.50;67.10;;;;;;4989142;28;20167;-44
2022/03/27 11:21:31;;;;;;;29.52;7.38;;;13.40;66.90;;;;;;5003077;28;20100;-44
2022/03/27 11:24:09;;;;;;;31.25;8.68;;;13.40;67.20;;;;;;5009137;28;20065;-45
2022/03/27 11:26:39;;;;;;;35.75;8.15;;;13.50;68.30;;;;;;5009697;28;20027;-44
2022/03/27 11:29:22;;;;;;;27.67;8.05;;;13.40;68.50;;;;;;5009363;28;20091;-45
2022/03/27 11:32:12;;;;;;;20.08;6.38;;;13.40;67.20;;;;;;5008454;28;20029;-45
2022/03/27 11:34:39;;;;;;;28.70;8.38;;;13.50;67.00;;;;;;5008674;28;20037;-44
2022/03/27 11:37:34;;;;;;;27.92;8.15;;;13.40;66.30;;;;;;5009165;28;20076;-44
2022/03/27 11:40:00;;;;;;;24.80;6.88;;;13.30;67.70;;;;;;5008556;28;20116;-46
2022/03/27 11:42:45;;;;;;;23.35;6.10;;;13.40;66.80;;;;;;5007891;28;20435;-44
2022/03/27 11:45:24;;;;;;;24.00;6.20;;;13.20;63.60;;;;;;5008116;28;20033;-44
2022/03/27 11:47:54;;;;;;;25.92;5.93;;;13.40;61.00;;;;;;5009933;28;20076;-45
2022/03/27 11:50:26;;;;;;;19.75;5.78;;;13.60;59.30;;;;;;5009064;28;20068;-45
2022/03/27 11:52:55;;;;;;;18.25;5.43;;;13.40;58.50;;;;;;5008610;28;20339;-45
2022/03/27 11:55:20;;;;;;;24.73;5.47;;;13.40;58.80;;;;;;5007183;28;20036;-47
2022/03/27 11:57:56;;;;;;;21.75;5.00;;;13.40;60.30;;;;;;5007764;28;20042;-45
2022/03/27 12:00:51;;;;;;;25.05;5.75;;;13.50;61.60;;;;;;5013228;28;20037;-45
2022/03/27 12:03:21;;;;;;;27.35;5.45;;;13.50;62.40;;;;;;5009793;28;20045;-44
2022/03/27 12:05:50;;;;;;;22.13;6.38;;;13.20;63.30;;;;;;5009824;28;20613;-46
2022/03/27 12:08:17;;;;;;;29.27;6.30;;;13.10;61.10;;;;;;4995719;28;20034;-46
2022/03/27 12:10:56;;;;;;;26.13;6.93;;;13.10;64.40;;;;;;5012590;28;20170;-44
2022/03/27 12:13:24;;;;;;;30.50;7.25;;;13.10;66.50;;;;;;4995115;28;20046;-45
2022/03/27 12:15:55;;;;;;;22.83;6.60;;;13.20;68.10;;;;;;5012457;28;20034;-45
2022/03/27 12:18:40;;;;;;;23.25;6.00;;;13.20;67.30;;;;;;5010904;28;20034;-45
2022/03/27 12:21:15;;;;;;;24.90;6.78;;;13.20;67.80;;;;;;5011684;28;20030;-46
2022/03/27 12:24:03;;;;;;;26.88;8.30;;;13.10;69.00;;;;;;5011956;28;20072;-45
2022/03/27 12:29:49;;;;;;;25.17;6.85;;;13.00;69.50;;;;;;5010194;28;20092;-47
2022/03/27 12:32:28;;;;;;;27.38;6.82;;;13.00;69.20;;;;;;5011470;28;20045;-47
2022/03/27 12:35:01;;;;;;;21.52;6.82;;;12.90;69.90;;;;;;5012325;28;20037;-47
2022/03/27 12:37:30;;;;;;;20.02;7.38;;;13.00;68.10;;;;;;5011404;28;20041;-46
2022/03/27 12:40:15;;;;;;;19.33;4.93;;;13.00;68.60;;;;;;5009945;28;20037;-43
2022/03/27 12:42:58;;;;;;;24.90;5.97;;;12.80;67.00;;;;;;5011391;28;20485;-47
2022/03/27 12:45:27;;;;;;;28.00;5.55;;;12.90;66.20;;;;;;5011913;28;20030;-47
2022/03/27 12:47:58;;;;;;;21.83;5.68;;;12.60;64.90;;;;;;5010136;28;20030;-44
2022/03/27 12:50:44;;;;;;;20.73;5.25;;;12.50;66.60;;;;;;5011265;28;20501;-46
2022/03/27 12:53:14;;;;;;;17.88;4.78;;;12.60;67.80;;;;;;5008250;28;20050;-45
2022/03/27 12:55:44;;;;;;;27.48;5.15;;;12.50;65.40;;;;;;4995297;28;20422;-44
2022/03/27 12:58:11;;;;;;;;;;;12.50;65.60;;;;;;5011850;28;20067;-44
2022/03/27 13:00:40;;;;;;;24.95;4.50;;;12.60;66.60;;;;;;5011907;28;20322;-48
2022/03/27 13:03:26;;;;;;;22.70;5.22;;;12.60;67.00;;;;;;5012430;28;20072;-45
2022/03/27 13:05:56;;;;;;;16.98;4.30;;;12.40;66.70;;;;;;5011896;28;20038;-44
2022/03/27 13:08:42;;;;;;;21.38;5.95;;;12.40;66.20;;;;;;5011950;28;20034;-46
2022/03/27 13:11:18;;;;;;;18.42;4.88;;;12.20;66.60;;;;;;5010930;28;20032;-47
2022/03/27 13:13:46;;;;;;;31.30;6.93;;;12.30;69.70;;;;;;5025221;28;20550;-46
2022/03/27 13:16:40;;;;;;;25.73;6.20;;;12.20;69.80;;;;;;5010643;28;20046;-45